createdAt,value
2023-05-04T00:01:24.232Z,53.04
2023-05-04T00:03:53.214Z,59.59
2023-05-04T00:06:22.236Z,59.25
2023-05-04T00:08:50.955Z,56.31
2023-05-04T00:11:19.905Z,56.50
2023-05-04T00:13:50.082Z,55.69
2023-05-04T00:16:20.547Z,57.06
2023-05-04T00:18:49.527Z,57.89
2023-05-04T00:21:18.765Z,56.04
2023-05-04T00:23:47.483Z,55.76
2023-05-04T00:26:15.867Z,58.06
2023-05-04T00:28:44.558Z,55.59
2023-05-04T00:31:13.132Z,52.77
2023-05-04T00:33:43.626Z,56.02
2023-05-04T00:36:13.980Z,53.54
2023-05-04T00:38:50.700Z,57.79
2023-05-04T00:41:20.903Z,56.31
2023-05-04T00:43:51.931Z,54.28
2023-05-04T00:46:24.681Z,57.40
2023-05-04T00:48:55.170Z,56.82
2023-05-04T00:51:26.730Z,56.78
2023-05-04T00:53:57.318Z,56.84
2023-05-04T00:56:27.643Z,56.21
2023-05-04T00:58:58.499Z,57.17
2023-05-04T01:01:31.283Z,56.99
2023-05-04T01:04:01.837Z,56.88
2023-05-04T01:06:46.147Z,55.35
2023-05-04T01:09:25.268Z,56.91
2023-05-04T01:12:05.193Z,57.03
2023-05-04T01:14:36.571Z,57.21
2023-05-04T01:17:07.132Z,57.30
2023-05-04T01:19:46.561Z,56.34
2023-05-04T01:22:17.502Z,57.06
2023-05-04T01:24:46.210Z,55.71
2023-05-04T01:27:24.738Z,56.99
2023-05-04T01:30:03.806Z,55.57
2023-05-04T01:32:35.862Z,57.60
2023-05-04T01:35:05.313Z,58.00
2023-05-04T01:37:35.292Z,56.99
2023-05-04T01:40:04.660Z,57.44
2023-05-04T01:42:33.344Z,57.95
2023-05-04T01:45:03.757Z,57.64
2023-05-04T01:47:32.393Z,57.94
2023-05-04T01:50:01.535Z,58.23
2023-05-04T01:52:33.124Z,57.77
2023-05-04T01:55:03.273Z,58.47
2023-05-04T01:57:32.265Z,58.32
2023-05-04T02:00:01.607Z,57.94
2023-05-04T02:02:30.471Z,57.85
2023-05-04T02:04:58.959Z,58.30
2023-05-04T02:07:28.256Z,58.34
2023-05-04T02:09:58.880Z,58.43
2023-05-04T02:12:31.429Z,58.68
2023-05-04T02:15:00.614Z,58.69
2023-05-04T02:17:29.834Z,58.82
2023-05-04T02:19:58.388Z,58.77
2023-05-04T02:22:27.273Z,58.96
2023-05-04T02:24:56.652Z,58.92
2023-05-04T02:27:25.360Z,59.13
2023-05-04T02:29:58.572Z,59.25
2023-05-04T02:32:27.989Z,59.21
2023-05-04T02:34:56.650Z,59.23
2023-05-04T02:37:25.493Z,59.27
2023-05-04T02:39:57.260Z,59.66
2023-05-04T02:42:26.395Z,59.64
2023-05-04T02:44:57.102Z,59.46
2023-05-04T02:47:25.766Z,59.62
2023-05-04T02:49:54.574Z,59.77
2023-05-04T02:52:23.893Z,59.90
2023-05-04T02:54:53.205Z,59.95
2023-05-04T02:57:22.523Z,59.97
2023-05-04T02:59:51.394Z,59.91
2023-05-04T03:02:23.773Z,60.04
2023-05-04T03:04:52.393Z,59.86
2023-05-04T03:07:22.575Z,60.67
2023-05-04T03:09:52.138Z,60.42
2023-05-04T03:12:21.443Z,60.38
2023-05-04T03:14:50.248Z,60.34
2023-05-04T03:17:20.324Z,60.36
2023-05-04T03:19:49.093Z,60.32
2023-05-04T03:22:18.933Z,60.29
2023-05-04T03:24:50.303Z,60.49
2023-05-04T03:27:19.759Z,60.39
2023-05-04T03:29:48.711Z,60.29
2023-05-04T03:32:17.516Z,60.37
2023-05-04T03:34:47.925Z,60.68
2023-05-04T03:37:17.718Z,60.72
2023-05-04T03:39:46.206Z,60.63
2023-05-04T03:42:14.832Z,60.79
2023-05-04T03:44:44.097Z,60.76
2023-05-04T03:47:12.906Z,61.02
2023-05-04T03:49:41.758Z,60.91
2023-05-04T03:52:11.910Z,60.75
2023-05-04T03:54:40.623Z,60.91
2023-05-04T03:57:10.751Z,60.90
2023-05-04T03:59:41.036Z,61.17
2023-05-04T04:02:10.506Z,61.15
2023-05-04T04:04:40.573Z,61.26
2023-05-04T04:07:10.937Z,61.32
2023-05-04T04:09:40.124Z,61.15
2023-05-04T04:12:14.006Z,61.23
2023-05-04T04:14:44.562Z,61.42
2023-05-04T04:17:13.041Z,61.37
2023-05-04T04:19:42.968Z,61.23
2023-05-04T04:22:13.265Z,61.29
2023-05-04T04:24:41.918Z,61.24
2023-05-04T04:27:10.950Z,61.12
2023-05-04T04:29:40.407Z,61.21
2023-05-04T04:32:09.165Z,61.20
2023-05-04T04:34:38.795Z,61.26
2023-05-04T04:37:09.743Z,61.35
2023-05-04T04:39:39.634Z,61.30
2023-05-04T04:42:10.102Z,61.12
2023-05-04T04:44:41.764Z,61.20
2023-05-04T04:47:10.684Z,60.81
2023-05-04T04:49:41.692Z,60.61
2023-05-04T04:52:13.418Z,60.32
2023-05-04T04:54:44.488Z,60.48
2023-05-04T04:57:13.255Z,60.10
2023-05-04T04:59:43.165Z,59.21
2023-05-04T05:02:11.592Z,57.15
2023-05-04T05:04:42.438Z,56.66
2023-05-04T05:07:11.167Z,56.14
2023-05-04T05:09:40.175Z,56.01
2023-05-04T05:12:10.907Z,54.72
2023-05-04T05:14:39.816Z,53.07
2023-05-04T05:17:10.344Z,51.53
2023-05-04T05:19:42.216Z,49.67
2023-05-04T05:22:10.788Z,48.10
2023-05-04T05:24:41.202Z,46.47
2023-05-04T05:27:11.834Z,46.15
2023-05-04T05:29:42.308Z,45.76
2023-05-04T05:32:11.150Z,46.04
2023-05-04T05:34:40.216Z,46.34
2023-05-04T05:37:09.229Z,45.66
2023-05-04T05:39:38.379Z,46.44
2023-05-04T05:42:09.692Z,47.54
2023-05-04T05:44:40.439Z,48.08
2023-05-04T05:47:09.117Z,50.27
2023-05-04T05:49:37.643Z,51.02
2023-05-04T05:52:06.761Z,50.89
2023-05-04T05:54:37.139Z,50.56
2023-05-04T05:57:05.843Z,49.22
2023-05-04T05:59:34.795Z,49.64
2023-05-04T06:02:06.098Z,48.33
2023-05-04T06:04:35.468Z,48.24
2023-05-04T06:07:03.901Z,49.25
2023-05-04T06:09:32.742Z,50.65
2023-05-04T06:12:02.119Z,49.67
2023-05-04T06:14:31.081Z,49.81
2023-05-04T06:16:59.438Z,49.62
2023-05-04T06:19:31.631Z,48.71
2023-05-04T06:22:00.367Z,48.37
2023-05-04T06:24:31.234Z,47.79
2023-05-04T06:27:04.034Z,47.02
2023-05-04T06:29:32.536Z,45.81
2023-05-04T06:32:01.442Z,45.52
2023-05-04T06:34:33.372Z,46.05
2023-05-04T06:37:01.977Z,46.81
2023-05-04T06:39:30.511Z,46.09
2023-05-04T06:41:58.817Z,45.72
2023-05-04T06:44:27.566Z,44.12
2023-05-04T06:46:56.677Z,44.17
2023-05-04T06:49:27.704Z,44.16
2023-05-04T06:51:57.710Z,42.44
2023-05-04T06:54:27.651Z,40.17
2023-05-04T06:56:56.853Z,41.23
2023-05-04T06:59:26.901Z,41.37
2023-05-04T07:01:55.948Z,41.15
2023-05-04T07:04:25.981Z,41.02
2023-05-04T07:06:58.235Z,42.44
2023-05-04T07:09:29.429Z,39.49
2023-05-04T07:12:00.769Z,40.39
2023-05-04T07:14:29.981Z,40.11
2023-05-04T07:16:59.241Z,39.58
2023-05-04T07:19:28.288Z,40.05
2023-05-04T07:21:59.804Z,40.64
2023-05-04T07:24:31.870Z,40.68
2023-05-04T07:27:03.897Z,40.59
2023-05-04T07:29:32.425Z,39.90
2023-05-04T07:32:01.259Z,41.17
2023-05-04T07:34:44.498Z,39.40
2023-05-04T07:37:17.536Z,39.83
2023-05-04T07:39:47.731Z,42.40
2023-05-04T07:42:17.492Z,40.43
2023-05-04T07:44:46.513Z,40.15
2023-05-04T07:47:17.287Z,41.73
2023-05-04T07:49:48.924Z,38.69
2023-05-04T07:52:19.138Z,39.71
2023-05-04T07:54:48.445Z,37.67
2023-05-04T07:57:17.631Z,39.36
2023-05-04T07:59:46.295Z,40.77
2023-05-04T08:02:15.236Z,39.58
2023-05-04T08:04:43.841Z,38.49
2023-05-04T08:07:12.242Z,40.86
2023-05-04T08:09:42.375Z,42.89
2023-05-04T08:12:12.399Z,40.82
2023-05-04T08:14:41.353Z,40.72
2023-05-04T08:17:10.550Z,40.92
2023-05-04T08:19:38.920Z,40.62
2023-05-04T08:22:07.474Z,41.26
2023-05-04T08:24:36.353Z,40.31
2023-05-04T08:27:08.825Z,41.41
2023-05-04T08:29:38.601Z,39.49
2023-05-04T08:32:07.921Z,39.69
2023-05-04T08:34:37.783Z,37.86
2023-05-04T08:37:06.755Z,39.80
2023-05-04T08:39:35.563Z,39.27
2023-05-04T08:42:06.499Z,40.79
2023-05-04T08:44:36.894Z,42.82
2023-05-04T08:47:06.271Z,41.11
2023-05-04T08:49:35.448Z,41.25
2023-05-04T08:52:08.863Z,40.33
2023-05-04T08:54:39.891Z,40.30
2023-05-04T08:57:10.650Z,41.28
2023-05-04T08:59:40.499Z,40.86
2023-05-04T09:02:13.335Z,40.36
2023-05-04T09:04:43.414Z,39.75
2023-05-04T09:07:13.181Z,41.92
2023-05-04T09:09:42.468Z,41.60
2023-05-04T09:12:13.482Z,43.20
2023-05-04T09:14:44.481Z,41.43
2023-05-04T09:17:26.424Z,43.93
2023-05-04T09:20:04.999Z,41.36
2023-05-04T09:22:34.011Z,40.95
2023-05-04T09:25:14.408Z,41.77
2023-05-04T09:27:54.910Z,38.87
2023-05-04T09:30:25.379Z,41.92
2023-05-04T09:32:54.268Z,38.86
2023-05-04T09:35:33.833Z,40.29
2023-05-04T09:38:04.169Z,39.05
2023-05-04T09:40:33.985Z,40.68
2023-05-04T09:43:06.792Z,39.02
2023-05-04T09:45:43.917Z,39.31
2023-05-04T09:48:20.774Z,41.00
2023-05-04T09:50:57.056Z,39.74
2023-05-04T09:53:29.657Z,38.93
2023-05-04T09:56:16.869Z,40.83
2023-05-04T09:58:47.485Z,39.29
2023-05-04T10:01:17.261Z,39.21
2023-05-04T10:03:48.892Z,41.11
2023-05-04T10:06:18.035Z,42.04
2023-05-04T10:08:47.318Z,40.02
2023-05-04T10:11:19.304Z,38.48
2023-05-04T10:13:50.672Z,39.08
2023-05-04T10:16:35.305Z,38.07
2023-05-04T10:19:32.304Z,41.51
2023-05-04T10:22:18.681Z,38.60
2023-05-04T10:25:35.158Z,40.18
2023-05-04T10:28:14.473Z,38.33
2023-05-04T10:30:45.091Z,39.84
2023-05-04T10:33:15.165Z,39.80
2023-05-04T10:35:53.884Z,42.25
2023-05-04T10:38:34.415Z,39.97
2023-05-04T10:41:03.677Z,38.65
2023-05-04T10:43:32.780Z,39.84
2023-05-04T10:46:03.008Z,37.45
2023-05-04T10:48:37.790Z,38.51
2023-05-04T10:51:21.252Z,37.02
2023-05-04T10:53:50.583Z,37.85
2023-05-04T10:56:25.032Z,35.94
2023-05-04T10:58:54.532Z,36.72
2023-05-04T11:01:24.990Z,34.79
2023-05-04T11:03:55.462Z,37.16
2023-05-04T11:06:25.777Z,38.85
2023-05-04T11:09:02.517Z,37.92
2023-05-04T11:11:38.360Z,36.55
2023-05-04T11:14:07.207Z,37.29
2023-05-04T11:16:37.631Z,38.85
2023-05-04T11:19:09.973Z,36.21
2023-05-04T11:21:38.587Z,36.52
2023-05-04T11:24:07.568Z,36.62
2023-05-04T11:26:48.786Z,34.57
2023-05-04T11:29:18.997Z,35.23
2023-05-04T11:31:57.989Z,34.49
2023-05-04T11:34:27.242Z,34.02
2023-05-04T11:36:56.393Z,35.71
2023-05-04T11:39:25.998Z,35.40
2023-05-04T11:41:55.854Z,40.29
2023-05-04T11:44:29.535Z,35.16
2023-05-04T11:46:59.984Z,33.37
2023-05-04T11:49:32.466Z,34.63
2023-05-04T11:52:08.428Z,34.15
2023-05-04T11:54:38.162Z,36.12
2023-05-04T11:57:06.626Z,32.68
2023-05-04T11:59:35.241Z,33.17
2023-05-04T12:02:05.437Z,37.03
2023-05-04T12:04:34.138Z,32.73
2023-05-04T12:07:09.157Z,34.55
2023-05-04T12:09:46.903Z,33.76
2023-05-04T12:12:19.381Z,35.77
2023-05-04T12:14:52.564Z,33.58
2023-05-04T12:17:24.268Z,36.62
2023-05-04T12:19:54.833Z,36.46
2023-05-04T12:22:32.707Z,32.66
2023-05-04T12:25:01.971Z,33.64
2023-05-04T12:27:32.129Z,33.35
2023-05-04T12:30:01.241Z,34.67
2023-05-04T12:32:33.052Z,34.63
2023-05-04T12:35:01.891Z,31.95
2023-05-04T12:37:30.926Z,32.43
2023-05-04T12:40:01.140Z,30.84
2023-05-04T12:42:30.650Z,31.19
2023-05-04T12:44:59.740Z,30.57
2023-05-04T12:47:28.880Z,29.10
2023-05-04T12:49:59.089Z,28.71
2023-05-04T12:52:30.070Z,30.03
2023-05-04T12:55:01.881Z,29.28
2023-05-04T12:57:30.608Z,29.25
2023-05-04T13:00:00.887Z,29.10
2023-05-04T13:02:29.600Z,28.80
2023-05-04T13:05:02.355Z,27.88
2023-05-04T13:07:33.748Z,30.11
2023-05-04T13:10:03.202Z,30.18
2023-05-04T13:12:32.293Z,28.30
2023-05-04T13:15:03.477Z,28.74
2023-05-04T13:17:34.868Z,29.26
2023-05-04T13:20:07.269Z,28.30
2023-05-04T13:22:36.759Z,29.54
2023-05-04T13:25:08.170Z,27.65
2023-05-04T13:27:39.559Z,29.09
2023-05-04T13:30:12.147Z,28.86
2023-05-04T13:32:42.369Z,29.11
2023-05-04T13:35:13.364Z,28.62
2023-05-04T13:37:42.690Z,28.82
2023-05-04T13:40:14.483Z,27.74
2023-05-04T13:42:43.688Z,28.37
2023-05-04T13:45:14.719Z,26.75
2023-05-04T13:47:43.620Z,27.89
2023-05-04T13:50:17.652Z,26.35
2023-05-04T13:52:46.832Z,26.82
2023-05-04T13:55:19.429Z,27.21
2023-05-04T13:57:48.064Z,26.33
2023-05-04T14:00:18.659Z,27.18
2023-05-04T14:02:47.471Z,28.04
2023-05-04T14:05:18.071Z,27.85
2023-05-04T14:07:51.267Z,28.15
2023-05-04T14:10:20.511Z,27.25
2023-05-04T14:12:49.259Z,28.22
2023-05-04T14:15:22.565Z,28.09
2023-05-04T14:17:51.691Z,27.33
2023-05-04T14:20:22.595Z,28.27
2023-05-04T14:22:51.937Z,26.93
2023-05-04T14:25:22.255Z,27.17
2023-05-04T14:27:51.226Z,27.30
2023-05-04T14:30:20.386Z,25.58
2023-05-04T14:32:50.235Z,25.89
2023-05-04T14:35:21.167Z,26.41
2023-05-04T14:37:50.133Z,26.23
2023-05-04T14:40:18.960Z,26.59
2023-05-04T14:42:47.568Z,27.00
2023-05-04T14:45:17.992Z,26.36
2023-05-04T14:47:47.464Z,26.15
2023-05-04T14:50:16.872Z,27.16
2023-05-04T14:52:47.154Z,26.18
2023-05-04T14:55:19.767Z,25.76
2023-05-04T14:57:49.522Z,26.71
2023-05-04T15:00:20.512Z,27.20
2023-05-04T15:02:49.542Z,26.62
2023-05-04T15:05:19.955Z,26.48
2023-05-04T15:07:51.615Z,26.21
2023-05-04T15:10:22.110Z,27.39
2023-05-04T15:12:51.632Z,26.23
2023-05-04T15:15:21.944Z,27.55
2023-05-04T15:17:51.944Z,27.19
2023-05-04T15:20:22.586Z,26.97
2023-05-04T15:22:58.965Z,26.23
2023-05-04T15:25:28.048Z,26.31
2023-05-04T15:27:57.758Z,27.17
2023-05-04T15:30:27.698Z,26.90
2023-05-04T15:32:56.724Z,26.34
2023-05-04T15:35:25.598Z,27.29
2023-05-04T15:37:58.434Z,27.76
2023-05-04T15:40:28.813Z,26.56
2023-05-04T15:42:58.392Z,27.00
2023-05-04T15:45:29.183Z,26.94
2023-05-04T15:47:59.556Z,26.87
2023-05-04T15:50:32.432Z,26.28
2023-05-04T15:53:03.442Z,27.77
2023-05-04T15:55:35.097Z,27.39
2023-05-04T15:58:04.145Z,27.37
2023-05-04T16:00:34.621Z,27.54
2023-05-04T16:03:03.251Z,28.59
2023-05-04T16:05:32.303Z,26.22
2023-05-04T16:08:02.995Z,26.98
2023-05-04T16:10:31.570Z,27.05
2023-05-04T16:13:04.517Z,26.80
2023-05-04T16:15:33.448Z,26.51
2023-05-04T16:18:02.454Z,27.12
2023-05-04T16:20:32.758Z,25.77
2023-05-04T16:23:03.338Z,27.00
2023-05-04T16:25:32.293Z,25.79
2023-05-04T16:28:03.368Z,25.64
2023-05-04T16:30:33.574Z,26.91
2023-05-04T16:33:03.719Z,26.39
2023-05-04T16:35:35.883Z,26.11
2023-05-04T16:38:09.989Z,25.55
2023-05-04T16:40:41.637Z,26.38
2023-05-04T16:43:12.159Z,26.31
2023-05-04T16:45:40.742Z,26.55
2023-05-04T16:48:11.140Z,25.46
2023-05-04T16:50:40.451Z,25.77
2023-05-04T16:53:11.177Z,25.22
2023-05-04T16:55:41.048Z,26.01
2023-05-04T16:58:10.809Z,25.64
2023-05-04T17:00:42.793Z,26.08
2023-05-04T17:03:12.642Z,26.58
2023-05-04T17:05:41.738Z,26.92
2023-05-04T17:08:13.054Z,26.24
2023-05-04T17:10:43.848Z,27.21
2023-05-04T17:13:13.874Z,27.36
2023-05-04T17:15:42.890Z,28.50
2023-05-04T17:18:11.931Z,28.73
2023-05-04T17:20:41.361Z,28.44
2023-05-04T17:23:11.825Z,28.78
2023-05-04T17:25:42.958Z,29.26
2023-05-04T17:28:11.908Z,29.55
2023-05-04T17:30:42.024Z,29.62
2023-05-04T17:33:10.913Z,31.09
2023-05-04T17:35:39.714Z,31.13
2023-05-04T17:38:08.687Z,30.75
2023-05-04T17:40:38.732Z,29.39
2023-05-04T17:43:10.302Z,29.60
2023-05-04T17:45:39.349Z,30.29
2023-05-04T17:48:07.991Z,30.17
2023-05-04T17:50:36.561Z,30.27
2023-05-04T17:53:07.958Z,31.23
2023-05-04T17:55:38.681Z,30.86
2023-05-04T17:58:07.245Z,30.72
2023-05-04T18:00:37.437Z,31.77
2023-05-04T18:03:06.238Z,31.64
2023-05-04T18:05:38.029Z,31.61
2023-05-04T18:08:09.496Z,32.41
2023-05-04T18:10:41.380Z,31.96
2023-05-04T18:13:10.147Z,32.37
2023-05-04T18:15:41.286Z,32.35
2023-05-04T18:18:11.179Z,32.26
2023-05-04T18:20:39.703Z,33.05
2023-05-04T18:23:09.009Z,33.73
2023-05-04T18:25:40.592Z,32.92
2023-05-04T18:28:10.498Z,33.76
2023-05-04T18:30:38.928Z,33.88
2023-05-04T18:33:07.607Z,34.09
2023-05-04T18:35:36.526Z,33.60
2023-05-04T18:38:05.210Z,33.91
2023-05-04T18:40:34.865Z,34.82
2023-05-04T18:43:05.285Z,34.62
2023-05-04T18:45:34.259Z,34.99
2023-05-04T18:48:03.162Z,34.83
2023-05-04T18:50:31.786Z,35.38
2023-05-04T18:53:01.807Z,35.73
2023-05-04T18:55:30.538Z,35.41
2023-05-04T18:57:59.088Z,36.01
2023-05-04T19:00:32.170Z,36.46
2023-05-04T19:03:00.683Z,36.22
2023-05-04T19:05:29.237Z,36.36
2023-05-04T19:07:58.787Z,36.30
2023-05-04T19:10:29.052Z,36.66
2023-05-04T19:12:58.111Z,37.08
2023-05-04T19:15:30.123Z,37.08
2023-05-04T19:17:59.472Z,36.78
2023-05-04T19:20:29.691Z,36.88
2023-05-04T19:22:59.693Z,36.04
2023-05-04T19:25:34.744Z,37.14
2023-05-04T19:28:08.594Z,37.58
2023-05-04T19:30:40.452Z,37.46
2023-05-04T19:33:09.517Z,37.57
2023-05-04T19:35:39.867Z,37.60
2023-05-04T19:38:09.229Z,37.75
2023-05-04T19:40:38.747Z,37.47
2023-05-04T19:43:08.305Z,38.02
2023-05-04T19:45:43.271Z,38.25
2023-05-04T19:48:13.558Z,38.30
2023-05-04T19:50:43.623Z,38.74
2023-05-04T19:53:13.402Z,38.75
2023-05-04T19:55:44.661Z,38.74
2023-05-04T19:58:13.700Z,39.35
2023-05-04T20:00:44.190Z,39.49
2023-05-04T20:03:12.647Z,39.57
2023-05-04T20:05:41.263Z,39.78
2023-05-04T20:08:10.651Z,39.79
2023-05-04T20:10:39.419Z,40.05
2023-05-04T20:13:08.446Z,40.18
2023-05-04T20:15:38.470Z,40.26
2023-05-04T20:18:09.146Z,40.65
2023-05-04T20:20:38.384Z,40.77
2023-05-04T20:23:07.506Z,40.91
2023-05-04T20:25:38.333Z,40.95
2023-05-04T20:28:09.540Z,41.23
2023-05-04T20:30:39.380Z,41.36
2023-05-04T20:33:10.092Z,41.34
2023-05-04T20:35:38.595Z,41.64
2023-05-04T20:38:07.296Z,41.80
2023-05-04T20:40:36.384Z,41.93
2023-05-04T20:43:05.781Z,41.96
2023-05-04T20:45:36.313Z,42.41
2023-05-04T20:48:07.079Z,42.39
2023-05-04T20:50:37.020Z,42.44
2023-05-04T20:53:05.705Z,42.66
2023-05-04T20:55:36.144Z,42.82
2023-05-04T20:58:04.860Z,42.92
2023-05-04T21:00:34.325Z,42.93
2023-05-04T21:03:04.683Z,42.95
2023-05-04T21:05:33.445Z,42.79
2023-05-04T21:08:04.341Z,43.00
2023-05-04T21:10:33.285Z,43.25
2023-05-04T21:13:03.963Z,42.91
2023-05-04T21:15:32.918Z,43.25
2023-05-04T21:18:03.239Z,42.87
2023-05-04T21:20:31.979Z,41.80
2023-05-04T21:23:02.578Z,43.69
2023-05-04T21:25:33.438Z,45.05
2023-05-04T21:28:02.171Z,43.45
2023-05-04T21:30:31.279Z,44.01
2023-05-04T21:33:01.663Z,44.73
2023-05-04T21:35:31.740Z,46.18
2023-05-04T21:38:01.218Z,45.52
2023-05-04T21:40:30.193Z,46.32
2023-05-04T21:43:01.668Z,44.08
2023-05-04T21:45:32.510Z,46.32
2023-05-04T21:48:03.951Z,44.86
2023-05-04T21:50:33.578Z,44.69
2023-05-04T21:53:03.786Z,47.32
2023-05-04T21:55:32.431Z,46.00
2023-05-04T21:58:03.292Z,46.40
2023-05-04T22:00:32.239Z,47.02
2023-05-04T22:03:01.469Z,46.57
2023-05-04T22:05:30.418Z,45.23
2023-05-04T22:08:01.250Z,45.79
2023-05-04T22:10:30.149Z,46.05
2023-05-04T22:12:58.891Z,43.27
2023-05-04T22:15:38.305Z,46.28
2023-05-04T22:18:15.687Z,48.07
2023-05-04T22:20:44.714Z,47.20
2023-05-04T22:23:14.008Z,48.22
2023-05-04T22:25:42.526Z,46.53
2023-05-04T22:28:14.576Z,46.56
2023-05-04T22:30:44.810Z,46.13
2023-05-04T22:33:13.406Z,46.55
2023-05-04T22:35:42.528Z,46.87
2023-05-04T22:38:12.391Z,45.20
2023-05-04T22:40:42.969Z,43.95
2023-05-04T22:43:11.831Z,46.29
2023-05-04T22:45:41.183Z,45.96
2023-05-04T22:48:14.329Z,43.24
2023-05-04T22:50:43.359Z,46.59
2023-05-04T22:53:12.477Z,45.82
2023-05-04T22:55:43.067Z,46.95
2023-05-04T22:58:11.549Z,46.23
2023-05-04T23:00:42.066Z,46.18
2023-05-04T23:03:12.471Z,46.01
2023-05-04T23:05:43.424Z,45.32
2023-05-04T23:08:13.240Z,45.92
2023-05-04T23:10:46.862Z,46.27
2023-05-04T23:13:15.652Z,44.92
2023-05-04T23:15:44.179Z,46.04
2023-05-04T23:18:16.390Z,46.84
2023-05-04T23:20:45.487Z,46.29
2023-05-04T23:23:14.790Z,46.51
2023-05-04T23:25:43.460Z,46.85
2023-05-04T23:28:12.453Z,46.17
2023-05-04T23:30:41.410Z,46.58
2023-05-04T23:33:10.020Z,46.94
2023-05-04T23:35:43.258Z,46.84
2023-05-04T23:38:13.353Z,46.95
2023-05-04T23:40:42.189Z,47.24
2023-05-04T23:43:10.896Z,47.12
2023-05-04T23:45:39.684Z,47.20
2023-05-04T23:48:11.459Z,47.19
2023-05-04T23:50:41.556Z,47.18
2023-05-04T23:53:11.016Z,47.59
2023-05-04T23:55:39.563Z,47.37
2023-05-04T23:58:08.173Z,47.57
